createdAt,value
2016-06-16T00:00:52.615Z,0
2016-06-16T00:01:52.729Z,0
2016-06-16T00:02:52.732Z,0
2016-06-16T00:03:52.766Z,0
2016-06-16T00:04:52.783Z,0
2016-06-16T00:05:52.818Z,0
2016-06-16T00:06:52.869Z,0
2016-06-16T00:07:52.981Z,0
2016-06-16T00:08:52.953Z,0
2016-06-16T00:09:53.159Z,0
2016-06-16T00:10:53.802Z,0
2016-06-16T00:11:53.087Z,0
2016-06-16T00:12:53.105Z,0
2016-06-16T00:13:53.187Z,0
2016-06-16T00:14:53.221Z,0
2016-06-16T00:15:53.224Z,0
2016-06-16T00:16:53.368Z,0
2016-06-16T00:17:53.340Z,0
2016-06-16T00:18:53.420Z,0
2016-06-16T00:19:53.440Z,0
2016-06-16T00:20:53.427Z,0
2016-06-16T00:21:53.477Z,0
2016-06-16T00:22:53.543Z,0
2016-06-16T00:23:53.561Z,0
2016-06-16T00:24:53.642Z,0
2016-06-16T00:25:54.739Z,0
2016-06-16T00:26:53.711Z,0
2016-06-16T00:27:53.714Z,0
2016-06-16T00:28:53.748Z,0
2016-06-16T00:29:53.876Z,0
2016-06-16T00:30:53.896Z,0
2016-06-16T00:31:54.102Z,0
2016-06-16T00:32:53.917Z,0
2016-06-16T00:33:54.091Z,0
2016-06-16T00:34:54.033Z,0
2016-06-16T00:35:53.879Z,0
2016-06-16T00:36:54.195Z,0
2016-06-16T00:37:54.135Z,0
2016-06-16T00:38:54.154Z,0
2016-06-16T00:39:54.188Z,0
2016-06-16T00:40:54.801Z,0
2016-06-16T00:41:54.414Z,0
2016-06-16T00:42:54.322Z,0
2016-06-16T00:43:54.357Z,0
2016-06-16T00:44:54.251Z,0
2016-06-16T00:45:54.489Z,0
2016-06-16T00:46:55.272Z,0
2016-06-16T00:47:55.229Z,0
2016-06-16T00:48:55.310Z,0
2016-06-16T00:49:54.594Z,0
2016-06-16T00:50:55.394Z,0
2016-06-16T00:51:55.507Z,0
2016-06-16T00:52:55.431Z,0
2016-06-16T00:53:55.419Z,0
2016-06-16T00:54:55.266Z,0
2016-06-16T00:55:55.660Z,0
2016-06-16T00:56:55.787Z,0
2016-06-16T00:57:55.026Z,0
2016-06-16T00:58:55.700Z,0
2016-06-16T00:59:55.766Z,0
2016-06-16T01:00:55.752Z,0
2016-06-16T01:01:55.256Z,0
2016-06-16T01:02:55.119Z,0
2016-06-16T01:03:55.200Z,0
2016-06-16T01:04:55.250Z,0
2016-06-16T01:05:55.175Z,0
2016-06-16T01:06:55.131Z,0
2016-06-16T01:07:55.384Z,0
2016-06-16T01:08:55.466Z,0
2016-06-16T01:09:55.530Z,0
2016-06-16T01:10:55.612Z,0
2016-06-16T01:11:55.397Z,0
2016-06-16T01:12:55.665Z,0
2016-06-16T01:13:55.605Z,0
2016-06-16T01:14:55.546Z,0
2016-06-16T01:15:55.674Z,0
2016-06-16T01:16:55.693Z,0
2016-06-16T01:17:55.727Z,0
2016-06-16T01:18:55.793Z,0
2016-06-16T01:19:55.843Z,0
2016-06-16T01:20:55.847Z,0
2016-06-16T01:21:55.942Z,0
2016-06-16T01:22:55.961Z,0
2016-06-16T01:23:56.026Z,0
2016-06-16T01:24:55.998Z,0
2016-06-16T01:25:56.096Z,0
2016-06-16T01:26:56.115Z,0
2016-06-16T01:27:56.118Z,0
2016-06-16T01:28:56.213Z,0
2016-06-16T01:29:56.264Z,0
2016-06-16T01:30:56.361Z,0
2016-06-16T01:31:56.286Z,0
2016-06-16T01:32:56.320Z,0
2016-06-16T01:33:56.214Z,0
2016-06-16T01:34:56.420Z,0
2016-06-16T01:35:56.532Z,0
2016-06-16T01:36:56.613Z,0
2016-06-16T01:37:56.585Z,0
2016-06-16T01:38:56.573Z,0
2016-06-16T01:39:56.732Z,0
2016-06-16T01:40:56.532Z,0
2016-06-16T01:41:56.707Z,0
2016-06-16T01:42:56.773Z,0
2016-06-16T01:43:56.760Z,0
2016-06-16T01:44:56.951Z,0
2016-06-16T01:45:56.844Z,0
2016-06-16T01:46:56.972Z,0
2016-06-16T01:47:57.038Z,0
2016-06-16T01:48:56.838Z,0
2016-06-16T01:49:56.857Z,0
2016-06-16T01:50:57.125Z,0
2016-06-16T01:51:57.112Z,0
2016-06-16T01:52:57.116Z,0
2016-06-16T01:53:57.166Z,0
2016-06-16T01:54:57.215Z,0
2016-06-16T01:55:58.109Z,0
2016-06-16T01:56:57.285Z,0
2016-06-16T01:57:57.350Z,0
2016-06-16T01:58:57.478Z,0
2016-06-16T01:59:57.434Z,0
2016-06-16T02:00:57.453Z,0
2016-06-16T02:01:57.331Z,0
2016-06-16T02:02:57.554Z,0
2016-06-16T02:03:57.603Z,0
2016-06-16T02:04:57.669Z,0
2016-06-16T02:05:57.655Z,0
2016-06-16T02:06:57.800Z,0
2016-06-16T02:07:57.755Z,0
2016-06-16T02:08:57.853Z,0
2016-06-16T02:09:57.840Z,0
2016-06-16T02:10:58.187Z,0
2016-06-16T02:11:57.893Z,0
2016-06-16T02:12:57.959Z,0
2016-06-16T02:13:58.040Z,0
2016-06-16T02:14:58.043Z,0
2016-06-16T02:15:58.311Z,0
2016-06-16T02:16:57.956Z,0
2016-06-16T02:17:58.536Z,0
2016-06-16T02:18:58.164Z,0
2016-06-16T02:19:58.215Z,0
2016-06-16T02:20:58.343Z,0
2016-06-16T02:21:58.345Z,0
2016-06-16T02:22:58.333Z,0
2016-06-16T02:23:58.446Z,0
2016-06-16T02:24:58.418Z,0
2016-06-16T02:25:59.171Z,0
2016-06-16T02:26:59.205Z,0
2016-06-16T02:27:58.411Z,0
2016-06-16T02:28:58.759Z,0
2016-06-16T02:29:58.620Z,0
2016-06-16T02:30:58.639Z,0
2016-06-16T02:31:58.782Z,0
2016-06-16T02:32:58.739Z,0
2016-06-16T02:33:58.773Z,0
2016-06-16T02:34:58.870Z,0
2016-06-16T02:35:58.889Z,0
2016-06-16T02:36:58.923Z,0
2016-06-16T02:37:58.926Z,0
2016-06-16T02:38:59.007Z,0
2016-06-16T02:39:59.073Z,0
2016-06-16T02:40:58.967Z,0
2016-06-16T02:41:59.095Z,0
2016-06-16T02:42:59.441Z,0
2016-06-16T02:43:59.226Z,0
2016-06-16T02:44:59.198Z,5
2016-06-16T02:45:59.498Z,5
2016-06-16T02:46:59.297Z,5
2016-06-16T02:47:59.331Z,5
2016-06-16T02:48:59.367Z,5
2016-06-16T02:49:59.432Z,5
2016-06-16T02:50:59.340Z,5
2016-06-16T02:51:59.610Z,5
2016-06-16T02:52:59.519Z,10
2016-06-16T02:53:59.616Z,10
2016-06-16T02:54:59.635Z,10
2016-06-16T02:55:59.764Z,10
2016-06-16T02:56:59.891Z,10
2016-06-16T02:57:59.737Z,10
2016-06-16T02:58:59.773Z,10
2016-06-16T02:59:59.822Z,15
2016-06-16T03:00:59.857Z,15
2016-06-16T03:01:59.907Z,15
2016-06-16T03:02:59.988Z,15
2016-06-16T03:04:00.053Z,15
2016-06-16T03:04:59.853Z,20
2016-06-16T03:06:00.106Z,20
2016-06-16T03:07:00.078Z,20
2016-06-16T03:08:00.363Z,20
2016-06-16T03:09:00.178Z,20
2016-06-16T03:10:00.259Z,25
2016-06-16T03:11:00.246Z,25
2016-06-16T03:12:00.297Z,25
2016-06-16T03:13:00.362Z,25
2016-06-16T03:14:00.349Z,30
2016-06-16T03:15:00.399Z,30
2016-06-16T03:16:00.481Z,30
2016-06-16T03:17:00.531Z,30
2016-06-16T03:18:00.518Z,30
2016-06-16T03:19:00.599Z,35
2016-06-16T03:20:00.649Z,35
2016-06-16T03:21:00.668Z,35
2016-06-16T03:22:00.671Z,35
2016-06-16T03:23:00.736Z,40
2016-06-16T03:24:00.833Z,40
2016-06-16T03:25:00.806Z,40
2016-06-16T03:26:00.917Z,40
2016-06-16T03:27:01.436Z,40
2016-06-16T03:28:00.955Z,45
2016-06-16T03:29:00.943Z,45
2016-06-16T03:30:01.007Z,45
2016-06-16T03:31:00.964Z,45
2016-06-16T03:32:01.077Z,50
2016-06-16T03:33:01.111Z,50
2016-06-16T03:34:01.145Z,50
2016-06-16T03:35:01.242Z,50
2016-06-16T03:36:01.167Z,55
2016-06-16T03:37:01.108Z,55
2016-06-16T03:38:01.313Z,55
2016-06-16T03:39:01.348Z,60
2016-06-16T03:40:01.413Z,60
2016-06-16T03:41:01.541Z,60
2016-06-16T03:42:01.655Z,60
2016-06-16T03:43:01.594Z,60
2016-06-16T03:44:01.550Z,65
2016-06-16T03:45:01.601Z,65
2016-06-16T03:46:01.666Z,65
2016-06-16T03:47:01.732Z,65
2016-06-16T03:48:01.626Z,65
2016-06-16T03:49:01.738Z,65
2016-06-16T03:50:01.788Z,65
2016-06-16T03:51:01.854Z,70
2016-06-16T03:52:01.747Z,70
2016-06-16T03:53:01.906Z,70
2016-06-16T03:54:02.066Z,70
2016-06-16T03:55:02.023Z,70
2016-06-16T03:56:02.040Z,70
2016-06-16T03:57:02.716Z,70
2016-06-16T03:58:02.141Z,75
2016-06-16T03:59:02.175Z,75
2016-06-16T04:00:02.210Z,75
2016-06-16T04:01:02.244Z,75
2016-06-16T04:02:02.325Z,75
2016-06-16T04:03:02.437Z,75
2016-06-16T04:04:02.348Z,80
2016-06-16T04:05:02.381Z,80
2016-06-16T04:06:02.462Z,80
2016-06-16T04:07:02.574Z,80
2016-06-16T04:08:02.500Z,80
2016-06-16T04:09:02.580Z,85
2016-06-16T04:10:02.646Z,85
2016-06-16T04:11:02.634Z,85
2016-06-16T04:12:02.543Z,85
2016-06-16T04:13:02.750Z,90
2016-06-16T04:14:02.783Z,90
2016-06-16T04:15:02.802Z,90
2016-06-16T04:16:02.821Z,95
2016-06-16T04:17:02.734Z,95
2016-06-16T04:18:03.011Z,95
2016-06-16T04:19:03.022Z,100
2016-06-16T04:20:03.127Z,95
2016-06-16T04:21:03.248Z,95
2016-06-16T04:22:03.374Z,100
2016-06-16T04:23:03.454Z,100
2016-06-16T04:24:03.393Z,100
2016-06-16T04:25:03.614Z,95
2016-06-16T04:26:03.521Z,95
2016-06-16T04:27:04.503Z,95
2016-06-16T04:28:03.605Z,95
2016-06-16T04:29:03.644Z,95
2016-06-16T04:30:03.715Z,95
2016-06-16T04:31:03.723Z,95
2016-06-16T04:32:03.761Z,95
2016-06-16T04:33:03.828Z,95
2016-06-16T04:34:03.974Z,95
2016-06-16T04:35:03.901Z,95
2016-06-16T04:36:03.764Z,100
2016-06-16T04:37:04.050Z,95
2016-06-16T04:38:04.039Z,100
2016-06-16T04:39:04.105Z,100
2016-06-16T04:40:04.172Z,105
2016-06-16T04:41:04.176Z,100
2016-06-16T04:42:04.226Z,100
2016-06-16T04:43:04.308Z,105
2016-06-16T04:44:04.264Z,105
2016-06-16T04:45:04.393Z,105
2016-06-16T04:46:04.380Z,110
2016-06-16T04:47:04.508Z,110
2016-06-16T04:48:04.574Z,115
2016-06-16T04:49:04.547Z,120
2016-06-16T04:50:04.595Z,120
2016-06-16T04:51:04.568Z,125
2016-06-16T04:52:04.618Z,130
2016-06-16T04:53:04.605Z,135
2016-06-16T04:54:04.749Z,140
2016-06-16T04:55:04.721Z,140
2016-06-16T04:56:04.755Z,145
2016-06-16T04:57:04.914Z,145
2016-06-16T04:58:04.871Z,145
2016-06-16T04:59:04.983Z,150
2016-06-16T05:00:04.970Z,145
2016-06-16T05:01:06.395Z,145
2016-06-16T05:02:05.023Z,145
2016-06-16T05:03:05.151Z,145
2016-06-16T05:04:05.093Z,140
2016-06-16T05:05:05.142Z,135
2016-06-16T05:06:05.176Z,135
2016-06-16T05:07:05.383Z,135
2016-06-16T05:08:06.698Z,135
2016-06-16T05:09:05.295Z,135
2016-06-16T05:10:05.189Z,125
2016-06-16T05:11:05.348Z,130
2016-06-16T05:12:06.492Z,130
2016-06-16T05:13:05.449Z,130
2016-06-16T05:14:05.592Z,130
2016-06-16T05:15:05.548Z,130
2016-06-16T05:16:05.583Z,125
2016-06-16T05:17:05.585Z,125
2016-06-16T05:18:05.823Z,120
2016-06-16T05:19:05.717Z,120
2016-06-16T05:20:05.563Z,120
2016-06-16T05:21:05.785Z,120
2016-06-16T05:22:05.835Z,120
2016-06-16T05:23:05.885Z,120
2016-06-16T05:24:05.997Z,120
2016-06-16T05:25:05.953Z,125
2016-06-16T05:26:05.988Z,125
2016-06-16T05:27:06.195Z,130
2016-06-16T05:28:06.307Z,130
2016-06-16T05:29:06.185Z,135
2016-06-16T05:30:06.547Z,135
2016-06-16T05:31:06.175Z,140
2016-06-16T05:32:06.225Z,140
2016-06-16T05:33:10.075Z,140
2016-06-16T05:34:06.325Z,140
2016-06-16T05:35:07.328Z,140
2016-06-16T05:36:06.222Z,140
2016-06-16T05:37:06.256Z,140
2016-06-16T05:38:08.040Z,140
2016-06-16T05:39:06.528Z,135
2016-06-16T05:40:07.062Z,135
2016-06-16T05:41:08.802Z,135
2016-06-16T05:42:08.931Z,130
2016-06-16T05:43:07.869Z,130
2016-06-16T05:44:07.184Z,130
2016-06-16T05:45:07.625Z,130
2016-06-16T05:46:08.018Z,130
2016-06-16T05:47:08.740Z,125
2016-06-16T05:48:06.914Z,125
2016-06-16T05:49:07.793Z,125
2016-06-16T05:50:07.374Z,125
2016-06-16T05:51:07.752Z,125
2016-06-16T05:52:07.036Z,125
2016-06-16T05:53:07.868Z,125
2016-06-16T05:54:07.886Z,125
2016-06-16T05:55:07.953Z,125
2016-06-16T05:56:07.706Z,125
2016-06-16T05:57:09.899Z,125
2016-06-16T05:58:08.352Z,125
2016-06-16T05:59:08.480Z,125
2016-06-16T06:00:08.967Z,125
2016-06-16T06:01:08.251Z,125
2016-06-16T06:02:08.302Z,125
2016-06-16T06:03:08.508Z,130
2016-06-16T06:04:09.495Z,125
2016-06-16T06:05:07.858Z,125
2016-06-16T06:06:07.658Z,125
2016-06-16T06:07:07.645Z,125
2016-06-16T06:08:07.993Z,130
2016-06-16T06:09:07.761Z,130
2016-06-16T06:10:07.858Z,130
2016-06-16T06:11:07.939Z,130
2016-06-16T06:12:09.098Z,130
2016-06-16T06:13:08.022Z,130
2016-06-16T06:14:08.072Z,130
2016-06-16T06:15:07.982Z,130
2016-06-16T06:16:08.064Z,130
2016-06-16T06:17:08.207Z,130
2016-06-16T06:18:08.163Z,130
2016-06-16T06:19:10.827Z,130
2016-06-16T06:20:08.202Z,130
2016-06-16T06:21:08.250Z,130
2016-06-16T06:22:08.520Z,130
2016-06-16T06:23:08.303Z,130
2016-06-16T06:24:09.495Z,130
2016-06-16T06:25:08.637Z,130
2016-06-16T06:26:08.595Z,130
2016-06-16T06:27:10.476Z,130
2016-06-16T06:28:08.585Z,130
2016-06-16T06:29:08.588Z,130
2016-06-16T06:30:08.653Z,130
2016-06-16T06:31:08.656Z,130
2016-06-16T06:32:08.691Z,130
2016-06-16T06:33:09.366Z,130
2016-06-16T06:34:08.853Z,130
2016-06-16T06:35:08.466Z,135
2016-06-16T06:36:08.891Z,135
2016-06-16T06:37:08.925Z,135
2016-06-16T06:38:09.068Z,135
2016-06-16T06:39:09.071Z,135
2016-06-16T06:40:09.059Z,135
2016-06-16T06:41:09.172Z,135
2016-06-16T06:42:09.644Z,135
2016-06-16T06:43:09.147Z,135
2016-06-16T06:44:09.384Z,135
2016-06-16T06:45:09.340Z,135
2016-06-16T06:46:09.296Z,140
2016-06-16T06:47:09.377Z,140
2016-06-16T06:48:09.240Z,140
2016-06-16T06:49:09.275Z,140
2016-06-16T06:50:09.450Z,140
2016-06-16T06:51:09.500Z,140
2016-06-16T06:52:09.549Z,140
2016-06-16T06:53:09.584Z,140
2016-06-16T06:54:09.601Z,140
2016-06-16T06:55:10.559Z,140
2016-06-16T06:56:10.046Z,140
2016-06-16T06:57:10.283Z,140
2016-06-16T06:58:12.867Z,140
2016-06-16T06:59:11.761Z,140
2016-06-16T07:00:11.652Z,145
2016-06-16T07:01:10.670Z,145
2016-06-16T07:02:10.095Z,150
2016-06-16T07:03:10.037Z,150
2016-06-16T07:04:10.368Z,155
2016-06-16T07:05:10.104Z,160
2016-06-16T07:06:10.388Z,160
2016-06-16T07:07:10.424Z,165
2016-06-16T07:08:10.192Z,170
2016-06-16T07:09:10.852Z,180
2016-06-16T07:10:10.401Z,180
2016-06-16T07:11:10.451Z,190
2016-06-16T07:12:13.817Z,200
2016-06-16T07:13:11.239Z,210
2016-06-16T07:14:10.523Z,220
2016-06-16T07:15:10.620Z,225
2016-06-16T07:16:11.749Z,230
2016-06-16T07:17:10.689Z,235
2016-06-16T07:18:10.630Z,240
2016-06-16T07:19:10.585Z,240
2016-06-16T07:20:11.307Z,250
2016-06-16T07:21:12.782Z,255
2016-06-16T07:22:13.051Z,270
2016-06-16T07:23:13.929Z,275
2016-06-16T07:24:13.730Z,280
2016-06-16T07:25:13.435Z,280
2016-06-16T07:26:14.266Z,265
2016-06-16T07:27:11.938Z,255
2016-06-16T07:28:10.722Z,245
2016-06-16T07:29:12.022Z,250
2016-06-16T07:30:13.700Z,255
2016-06-16T07:31:11.184Z,245
2016-06-16T07:32:36.909Z,245
2016-06-16T07:33:11.269Z,235
2016-06-16T07:34:11.898Z,230
2016-06-16T07:48:37.615Z,225
2016-06-16T07:48:50.240Z,220
2016-06-16T07:49:06.227Z,220
2016-06-16T07:50:06.324Z,215
2016-06-16T07:51:06.467Z,205
2016-06-16T07:52:06.127Z,205
2016-06-16T07:53:06.614Z,200
2016-06-16T07:54:06.618Z,200
2016-06-16T07:55:06.496Z,195
2016-06-16T07:56:06.874Z,195
2016-06-16T07:57:07.095Z,200
2016-06-16T07:58:06.754Z,210
2016-06-16T07:59:06.836Z,220
2016-06-16T08:00:06.902Z,225
2016-06-16T08:01:06.905Z,225
2016-06-16T08:02:06.939Z,225
2016-06-16T08:03:07.129Z,235
2016-06-16T08:04:07.070Z,225
2016-06-16T08:05:07.167Z,220
2016-06-16T08:06:07.389Z,215
2016-06-16T08:07:07.392Z,205
2016-06-16T08:08:07.489Z,210
2016-06-16T08:09:07.242Z,215
2016-06-16T08:10:08.104Z,225
2016-06-16T08:11:07.685Z,240
2016-06-16T08:12:07.376Z,245
2016-06-16T08:13:07.410Z,245
2016-06-16T08:14:07.178Z,245
2016-06-16T08:15:07.510Z,235
2016-06-16T08:16:07.591Z,225
2016-06-16T08:17:07.579Z,230
2016-06-16T08:18:07.645Z,230
2016-06-16T08:19:08.756Z,225
2016-06-16T08:20:07.713Z,225
2016-06-16T08:21:07.888Z,225
2016-06-16T08:22:08.312Z,225
2016-06-16T08:23:07.629Z,225
2016-06-16T08:24:09.256Z,230
2016-06-16T08:25:07.774Z,235
2016-06-16T08:26:07.996Z,245
2016-06-16T08:27:10.360Z,250
2016-06-16T08:28:10.238Z,255
2016-06-16T08:29:10.694Z,255
2016-06-16T08:30:09.947Z,250
2016-06-16T08:31:09.997Z,250
2016-06-16T08:32:08.312Z,245
2016-06-16T08:33:08.315Z,240
2016-06-16T08:34:08.757Z,240
2016-06-16T08:35:08.572Z,250
2016-06-16T08:36:08.416Z,260
2016-06-16T08:37:08.669Z,270
2016-06-16T08:38:08.546Z,270
2016-06-16T08:39:08.659Z,280
2016-06-16T08:40:08.506Z,280
2016-06-16T08:41:09.196Z,280
2016-06-16T08:42:08.699Z,270
2016-06-16T08:43:08.844Z,275
2016-06-16T08:44:08.800Z,285
2016-06-16T08:45:09.350Z,290
2016-06-16T08:46:09.025Z,300
2016-06-16T08:47:08.919Z,310
2016-06-16T08:48:19.737Z,390
2016-06-16T08:48:35.956Z,390
2016-06-16T08:49:35.974Z,415
2016-06-16T08:50:36.088Z,450
2016-06-16T08:51:36.121Z,480
2016-06-16T08:52:36.108Z,515
2016-06-16T08:53:35.831Z,545
2016-06-16T08:54:36.287Z,560
2016-06-16T08:55:36.134Z,565
2016-06-16T08:56:36.152Z,545
2016-06-16T08:57:36.328Z,530
2016-06-16T08:58:36.392Z,525
2016-06-16T08:59:36.599Z,525
2016-06-16T09:00:36.337Z,520
2016-06-16T09:01:36.496Z,515
2016-06-16T09:02:36.749Z,515
2016-06-16T09:03:36.596Z,515
2016-06-16T09:04:36.630Z,510
2016-06-16T09:05:36.743Z,505
2016-06-16T09:06:36.761Z,470
2016-06-16T09:07:36.795Z,450
2016-06-16T09:08:36.673Z,430
2016-06-16T09:09:36.786Z,430
2016-06-16T09:10:36.961Z,445
2016-06-16T09:11:37.214Z,455
2016-06-16T09:12:37.201Z,480
2016-06-16T09:13:37.970Z,510
2016-06-16T09:14:37.895Z,540
2016-06-16T09:15:37.195Z,540
2016-06-16T09:16:37.026Z,540
2016-06-16T09:17:37.326Z,545
2016-06-16T09:18:37.485Z,545
2016-06-16T09:19:37.286Z,545
2016-06-16T09:20:37.523Z,545
2016-06-16T09:21:38.042Z,555
2016-06-16T09:22:37.560Z,575
2016-06-16T09:23:37.344Z,595
2016-06-16T09:24:37.582Z,600
2016-06-16T09:25:37.460Z,605
2016-06-16T09:26:38.432Z,605
2016-06-16T09:27:37.763Z,610
2016-06-16T09:28:38.407Z,620
2016-06-16T09:29:37.832Z,630
2016-06-16T09:30:37.710Z,640
2016-06-16T09:31:38.025Z,640
2016-06-16T09:32:37.919Z,640
2016-06-16T09:33:38.423Z,635
2016-06-16T09:34:39.628Z,630
2016-06-16T09:35:38.085Z,630
2016-06-16T09:36:38.494Z,640
2016-06-16T09:37:38.216Z,650
2016-06-16T09:38:38.468Z,655
2016-06-16T09:39:39.519Z,660
2016-06-16T09:40:38.616Z,660
2016-06-16T09:41:39.119Z,670
2016-06-16T09:42:38.825Z,680
2016-06-16T09:43:38.390Z,690
2016-06-16T09:44:38.534Z,700
2016-06-16T09:45:40.881Z,710
2016-06-16T09:46:39.963Z,715
2016-06-16T09:47:38.934Z,720
2016-06-16T09:48:39.030Z,725
2016-06-16T09:49:41.988Z,725
2016-06-16T09:50:38.849Z,730
2016-06-16T09:51:38.947Z,735
2016-06-16T09:52:39.590Z,740
2016-06-16T09:53:40.406Z,745
2016-06-16T09:54:39.423Z,750
2016-06-16T09:55:40.162Z,755
2016-06-16T09:56:40.055Z,755
2016-06-16T09:57:40.762Z,755
2016-06-16T09:58:39.218Z,755
2016-06-16T09:59:39.424Z,750
2016-06-16T10:00:39.849Z,740
2016-06-16T10:01:40.805Z,720
2016-06-16T10:02:40.809Z,695
2016-06-16T10:03:42.234Z,675
2016-06-16T10:04:41.830Z,650
2016-06-16T10:05:40.537Z,635
2016-06-16T10:06:43.946Z,625
2016-06-16T10:07:42.432Z,625
2016-06-16T10:08:39.639Z,630
2016-06-16T10:09:41.299Z,635
2016-06-16T10:10:42.067Z,645
2016-06-16T10:11:39.945Z,655
2016-06-16T10:12:42.745Z,660
2016-06-16T10:13:39.826Z,665
2016-06-16T10:14:39.877Z,670
2016-06-16T10:15:39.911Z,665
2016-06-16T10:16:41.585Z,655
2016-06-16T10:17:42.308Z,645
2016-06-16T10:18:40.091Z,645
2016-06-16T10:19:40.173Z,660
2016-06-16T10:20:40.004Z,660
2016-06-16T10:21:41.617Z,655
2016-06-16T10:22:40.276Z,670
2016-06-16T10:23:40.279Z,690
2016-06-16T10:24:40.376Z,705
2016-06-16T10:25:41.691Z,720
2016-06-16T10:26:42.210Z,740
2016-06-16T10:27:40.464Z,750
2016-06-16T10:28:40.591Z,765
2016-06-16T10:29:40.626Z,765
2016-06-16T10:30:40.957Z,770
2016-06-16T10:31:41.023Z,760
2016-06-16T10:32:41.041Z,750
2016-06-16T10:33:40.904Z,745
2016-06-16T10:34:41.062Z,745
2016-06-16T10:35:42.019Z,745
2016-06-16T10:36:40.991Z,745
2016-06-16T10:37:41.010Z,745
2016-06-16T10:38:41.044Z,760
2016-06-16T10:39:40.922Z,765
2016-06-16T10:40:41.129Z,785
2016-06-16T10:41:41.256Z,840
2016-06-16T10:42:41.462Z,880
2016-06-16T10:43:41.371Z,865
2016-06-16T10:44:41.485Z,930
2016-06-16T10:45:42.988Z,925
2016-06-16T10:46:44.803Z,930
2016-06-16T10:47:44.759Z,935
2016-06-16T10:48:42.340Z,930
2016-06-16T10:49:44.922Z,920
2016-06-16T10:50:45.831Z,915
2016-06-16T10:51:43.349Z,875
2016-06-16T10:52:41.899Z,875
2016-06-16T10:53:48.496Z,920
2016-06-16T10:54:49.313Z,960
2016-06-16T10:55:44.705Z,960
2016-06-16T10:56:53.022Z,980
2016-06-16T10:59:37.420Z,935
2016-06-16T11:00:37.784Z,965
2016-06-16T11:01:37.943Z,1005
2016-06-16T11:02:36.446Z,1005
2016-06-16T11:03:36.450Z,995
2016-06-16T11:04:36.686Z,990
2016-06-16T11:08:03.071Z,950
2016-06-16T11:09:45.811Z,980
2016-06-16T11:10:03.093Z,990
2016-06-16T11:11:03.971Z,965
2016-06-16T11:12:03.192Z,945
2016-06-16T11:13:41.605Z,975
2016-06-16T11:14:05.277Z,985
2016-06-16T11:15:04.749Z,975
2016-06-16T11:16:02.580Z,960
2016-06-16T11:17:02.645Z,940
2016-06-16T11:18:02.570Z,925
2016-06-16T11:19:03.089Z,930
2016-06-16T11:20:03.842Z,925
2016-06-16T11:21:05.908Z,915
2016-06-16T11:22:04.943Z,880
2016-06-16T11:23:03.539Z,885
2016-06-16T11:24:03.683Z,905
2016-06-16T11:25:03.936Z,905
2016-06-16T11:26:03.908Z,855
2016-06-16T11:27:05.316Z,880
2016-06-16T11:28:03.367Z,910
2016-06-16T11:29:04.229Z,885
2016-06-16T11:30:03.420Z,815
2016-06-16T11:31:05.360Z,760
2016-06-16T11:32:03.379Z,795
2016-06-16T11:33:03.413Z,780
2016-06-16T11:34:03.558Z,765
2016-06-16T11:35:03.560Z,730
2016-06-16T11:36:03.423Z,710
2016-06-16T11:37:03.457Z,705
2016-06-16T11:38:03.647Z,675
2016-06-16T11:39:04.244Z,660
2016-06-16T11:40:03.795Z,655
2016-06-16T11:42:05.457Z,625
2016-06-16T11:43:03.913Z,625
2016-06-16T11:44:04.369Z,635
2016-06-16T11:45:04.153Z,640
2016-06-16T11:46:04.141Z,650
2016-06-16T11:47:04.098Z,665
2016-06-16T11:48:04.022Z,675
2016-06-16T11:49:04.212Z,705
2016-06-16T11:50:04.340Z,715
2016-06-16T11:51:04.296Z,720
2016-06-16T11:52:05.816Z,705
2016-06-16T11:53:05.100Z,710
2016-06-16T11:54:04.541Z,705
2016-06-16T11:55:04.278Z,715
2016-06-16T11:56:04.375Z,725
2016-06-16T11:57:04.550Z,735
2016-06-16T11:58:04.787Z,755
2016-06-16T11:59:04.525Z,775
2016-06-16T12:00:04.935Z,785
2016-06-16T12:01:04.952Z,790
2016-06-16T12:02:04.909Z,775
2016-06-16T12:03:04.928Z,750
2016-06-16T12:04:05.086Z,735
2016-06-16T12:05:05.434Z,725
2016-06-16T12:06:05.015Z,710
2016-06-16T12:07:05.002Z,695
2016-06-16T12:08:05.177Z,680
2016-06-16T12:09:05.618Z,670
2016-06-16T12:10:05.965Z,650
2016-06-16T12:11:05.296Z,650
2016-06-16T12:12:05.049Z,660
2016-06-16T12:13:05.208Z,685
2016-06-16T12:14:05.445Z,695
2016-06-16T12:15:05.324Z,730
2016-06-16T12:16:05.468Z,725
2016-06-16T12:17:06.298Z,670
2016-06-16T12:18:06.005Z,675
2016-06-16T12:19:05.508Z,675
2016-06-16T12:20:06.464Z,665
2016-06-16T12:21:05.749Z,600
2016-06-16T12:22:05.845Z,555
2016-06-16T12:23:05.770Z,540
2016-06-16T12:24:05.883Z,485
2016-06-16T12:25:06.027Z,465
2016-06-16T12:26:06.060Z,475
2016-06-16T12:27:05.892Z,485
2016-06-16T12:28:06.113Z,520
2016-06-16T12:29:06.164Z,595
2016-06-16T12:30:06.120Z,685
2016-06-16T12:31:07.108Z,765
2016-06-16T12:32:06.158Z,795
2016-06-16T12:33:09.786Z,875
2016-06-16T12:34:06.257Z,935
2016-06-16T12:35:06.448Z,880
2016-06-16T12:36:07.263Z,685
2016-06-16T12:37:06.579Z,605
2016-06-16T12:38:08.161Z,570
2016-06-16T12:39:06.773Z,550
2016-06-16T12:40:09.900Z,545
2016-06-16T12:41:07.014Z,560
2016-06-16T12:42:06.609Z,670
2016-06-16T12:43:06.847Z,650
2016-06-16T12:44:06.695Z,695
2016-06-16T12:45:06.775Z,885
2016-06-16T12:46:07.560Z,795
2016-06-16T12:47:07.469Z,660
2016-06-16T12:48:07.394Z,565
2016-06-16T12:49:07.178Z,520
2016-06-16T12:50:07.244Z,495
2016-06-16T12:51:06.934Z,470
2016-06-16T12:52:07.345Z,430
2016-06-16T12:53:07.426Z,400
2016-06-16T12:58:52.194Z,290
2016-06-16T12:59:08.350Z,285
2016-06-16T13:00:08.384Z,280
2016-06-16T13:01:08.481Z,280
2016-06-16T13:02:09.579Z,275
2016-06-16T13:03:08.816Z,270
2016-06-16T13:04:08.585Z,270
2016-06-16T13:05:08.713Z,270
2016-06-16T13:06:09.121Z,275
2016-06-16T13:07:08.812Z,285
2016-06-16T13:08:08.612Z,300
2016-06-16T13:09:08.771Z,320
2016-06-16T13:10:08.821Z,330
2016-06-16T13:11:09.200Z,330
2016-06-16T13:12:08.938Z,335
2016-06-16T13:13:09.050Z,340
2016-06-16T13:14:09.116Z,345
2016-06-16T13:15:09.290Z,355
2016-06-16T13:16:10.184Z,370
2016-06-16T13:17:09.250Z,380
2016-06-16T13:18:10.096Z,365
2016-06-16T13:19:09.162Z,330
2016-06-16T13:20:09.368Z,290
2016-06-16T13:21:09.387Z,260
2016-06-16T13:22:09.140Z,245
2016-06-16T13:23:09.502Z,240
2016-06-16T13:24:10.193Z,235
2016-06-16T13:25:09.570Z,230
2016-06-16T13:26:09.934Z,220
2016-06-16T13:27:09.530Z,220
2016-06-16T13:28:09.721Z,240
2016-06-16T13:29:09.662Z,240
2016-06-16T13:30:09.821Z,235
2016-06-16T13:31:09.917Z,225
2016-06-16T13:32:09.889Z,215
2016-06-16T13:33:09.939Z,205
2016-06-16T13:34:09.989Z,210
2016-06-16T13:35:10.101Z,225
2016-06-16T13:36:10.073Z,235
2016-06-16T13:37:10.123Z,230
2016-06-16T13:38:10.204Z,230
2016-06-16T13:39:10.035Z,220
2016-06-16T13:40:10.274Z,205
2016-06-16T13:41:10.277Z,185
2016-06-16T13:42:10.373Z,180
2016-06-16T13:43:10.408Z,185
2016-06-16T13:44:10.426Z,205
2016-06-16T13:45:10.523Z,230
2016-06-16T13:46:10.401Z,250
2016-06-16T13:47:10.405Z,270
2016-06-16T13:48:10.626Z,275
2016-06-16T13:49:10.660Z,275
2016-06-16T13:50:10.788Z,285
2016-06-16T13:51:10.744Z,285
2016-06-16T13:52:10.811Z,275
2016-06-16T13:53:10.892Z,260
2016-06-16T13:58:54.357Z,245
2016-06-16T13:59:54.642Z,245
2016-06-16T14:00:54.582Z,240
2016-06-16T14:01:54.679Z,245
2016-06-16T14:02:54.745Z,265
2016-06-16T14:03:54.748Z,295
2016-06-16T14:04:54.751Z,310
2016-06-16T14:05:54.816Z,325
2016-06-16T14:06:54.836Z,350
2016-06-16T14:07:54.885Z,375
2016-06-16T14:08:54.858Z,380
2016-06-16T14:09:55.001Z,365
2016-06-16T14:10:55.004Z,350
2016-06-16T14:11:55.053Z,345
2016-06-16T14:12:54.838Z,345
2016-06-16T14:13:54.888Z,355
2016-06-16T14:14:55.140Z,365
2016-06-16T14:15:55.285Z,350
2016-06-16T14:16:55.367Z,325
2016-06-16T14:17:55.620Z,290
2016-06-16T14:18:55.373Z,255
2016-06-16T14:19:55.283Z,245
2016-06-16T14:20:55.365Z,245
2016-06-16T14:21:55.555Z,255
2016-06-16T14:22:55.418Z,240
2016-06-16T14:23:55.639Z,210
2016-06-16T14:24:55.548Z,185
2016-06-16T14:25:55.927Z,175
2016-06-16T14:26:56.414Z,175
2016-06-16T14:27:55.668Z,180